sensor_id;sensor_type;location;lat;lon;timestamp;P1;durP1;ratioP1;P2;durP2;ratioP2
23376;SDS011;14353;46.070;13.222;2023-08-20T00:01:28;3.08;;;2.78;;
23376;SDS011;14353;46.070;13.222;2023-08-20T00:03:55;3.55;;;3.25;;
23376;SDS011;14353;46.070;13.222;2023-08-20T00:06:21;2.80;;;2.60;;
23376;SDS011;14353;46.070;13.222;2023-08-20T00:08:48;2.97;;;2.78;;
23376;SDS011;14353;46.070;13.222;2023-08-20T00:11:14;2.97;;;2.78;;
23376;SDS011;14353;46.070;13.222;2023-08-20T00:13:40;3.08;;;2.88;;
23376;SDS011;14353;46.070;13.222;2023-08-20T00:16:06;3.10;;;2.80;;
23376;SDS011;14353;46.070;13.222;2023-08-20T00:18:34;3.25;;;2.95;;
23376;SDS011;14353;46.070;13.222;2023-08-20T00:20:59;2.88;;;2.67;;
23376;SDS011;14353;46.070;13.222;2023-08-20T00:23:26;3.10;;;2.90;;
23376;SDS011;14353;46.070;13.222;2023-08-20T00:25:52;3.20;;;2.85;;
23376;SDS011;14353;46.070;13.222;2023-08-20T00:28:19;3.42;;;2.90;;
23376;SDS011;14353;46.070;13.222;2023-08-20T00:30:45;3.10;;;2.90;;
23376;SDS011;14353;46.070;13.222;2023-08-20T00:33:11;3.10;;;2.90;;
23376;SDS011;14353;46.070;13.222;2023-08-20T00:35:37;3.13;;;2.92;;
23376;SDS011;14353;46.070;13.222;2023-08-20T00:38:02;3.47;;;3.17;;
23376;SDS011;14353;46.070;13.222;2023-08-20T00:40:29;3.10;;;2.90;;
23376;SDS011;14353;46.070;13.222;2023-08-20T00:42:56;3.22;;;2.90;;
23376;SDS011;14353;46.070;13.222;2023-08-20T00:45:22;3.22;;;3.00;;
23376;SDS011;14353;46.070;13.222;2023-08-20T00:47:48;3.00;;;2.80;;
23376;SDS011;14353;46.070;13.222;2023-08-20T00:50:14;3.05;;;2.85;;
23376;SDS011;14353;46.070;13.222;2023-08-20T00:52:41;3.35;;;3.05;;
23376;SDS011;14353;46.070;13.222;2023-08-20T00:55:08;2.92;;;2.72;;
23376;SDS011;14353;46.070;13.222;2023-08-20T00:57:36;2.65;;;2.45;;
23376;SDS011;14353;46.070;13.222;2023-08-20T01:00:03;3.10;;;2.90;;
23376;SDS011;14353;46.070;13.222;2023-08-20T01:02:38;3.03;;;2.83;;
23376;SDS011;14353;46.070;13.222;2023-08-20T01:05:06;3.10;;;2.90;;
23376;SDS011;14353;46.070;13.222;2023-08-20T01:12:36;3.20;;;3.00;;
23376;SDS011;14353;46.070;13.222;2023-08-20T01:15:03;3.00;;;2.80;;
23376;SDS011;14353;46.070;13.222;2023-08-20T01:17:29;3.28;;;3.05;;
23376;SDS011;14353;46.070;13.222;2023-08-20T01:19:56;3.38;;;3.08;;
23376;SDS011;14353;46.070;13.222;2023-08-20T01:25:16;3.20;;;3.00;;
23376;SDS011;14353;46.070;13.222;2023-08-20T01:27:50;3.10;;;2.90;;
23376;SDS011;14353;46.070;13.222;2023-08-20T01:30:29;3.40;;;3.10;;
23376;SDS011;14353;46.070;13.222;2023-08-20T01:32:56;3.30;;;3.03;;
23376;SDS011;14353;46.070;13.222;2023-08-20T01:35:24;3.50;;;3.20;;
23376;SDS011;14353;46.070;13.222;2023-08-20T01:37:51;3.40;;;3.10;;
23376;SDS011;14353;46.070;13.222;2023-08-20T01:40:17;3.33;;;3.03;;
23376;SDS011;14353;46.070;13.222;2023-08-20T01:42:43;2.92;;;2.72;;
23376;SDS011;14353;46.070;13.222;2023-08-20T01:45:08;3.25;;;2.97;;
23376;SDS011;14353;46.070;13.222;2023-08-20T01:47:36;3.40;;;3.10;;
23376;SDS011;14353;46.070;13.222;2023-08-20T01:50:02;3.33;;;3.08;;
23376;SDS011;14353;46.070;13.222;2023-08-20T01:52:28;3.28;;;2.97;;
23376;SDS011;14353;46.070;13.222;2023-08-20T01:54:57;3.22;;;3.00;;
23376;SDS011;14353;46.070;13.222;2023-08-20T01:57:23;3.30;;;3.00;;
23376;SDS011;14353;46.070;13.222;2023-08-20T01:59:49;3.30;;;3.00;;
23376;SDS011;14353;46.070;13.222;2023-08-20T02:02:14;3.55;;;3.25;;
23376;SDS011;14353;46.070;13.222;2023-08-20T02:04:40;3.00;;;2.80;;
23376;SDS011;14353;46.070;13.222;2023-08-20T02:07:05;3.40;;;3.20;;
23376;SDS011;14353;46.070;13.222;2023-08-20T02:09:31;3.25;;;3.03;;
23376;SDS011;14353;46.070;13.222;2023-08-20T02:11:57;3.40;;;3.10;;
23376;SDS011;14353;46.070;13.222;2023-08-20T02:14:22;3.30;;;3.10;;
23376;SDS011;14353;46.070;13.222;2023-08-20T02:16:48;3.30;;;3.00;;
23376;SDS011;14353;46.070;13.222;2023-08-20T02:19:14;3.45;;;3.22;;
23376;SDS011;14353;46.070;13.222;2023-08-20T02:21:40;3.40;;;3.10;;
23376;SDS011;14353;46.070;13.222;2023-08-20T02:24:06;3.40;;;3.10;;
23376;SDS011;14353;46.070;13.222;2023-08-20T02:26:32;3.15;;;2.78;;
23376;SDS011;14353;46.070;13.222;2023-08-20T02:28:57;3.00;;;2.80;;
23376;SDS011;14353;46.070;13.222;2023-08-20T02:31:23;3.08;;;2.88;;
23376;SDS011;14353;46.070;13.222;2023-08-20T02:33:49;3.33;;;3.03;;
23376;SDS011;14353;46.070;13.222;2023-08-20T02:36:15;3.67;;;3.38;;
23376;SDS011;14353;46.070;13.222;2023-08-20T02:38:40;3.40;;;3.10;;
23376;SDS011;14353;46.070;13.222;2023-08-20T02:41:06;3.22;;;2.92;;
23376;SDS011;14353;46.070;13.222;2023-08-20T02:43:32;3.22;;;2.92;;
23376;SDS011;14353;46.070;13.222;2023-08-20T02:45:58;3.13;;;2.83;;
23376;SDS011;14353;46.070;13.222;2023-08-20T02:48:23;3.20;;;2.90;;
23376;SDS011;14353;46.070;13.222;2023-08-20T02:50:55;3.08;;;2.88;;
23376;SDS011;14353;46.070;13.222;2023-08-20T02:53:21;2.85;;;2.65;;
23376;SDS011;14353;46.070;13.222;2023-08-20T02:55:47;3.55;;;3.25;;
23376;SDS011;14353;46.070;13.222;2023-08-20T02:58:13;3.28;;;2.97;;
23376;SDS011;14353;46.070;13.222;2023-08-20T03:00:39;2.92;;;2.72;;
23376;SDS011;14353;46.070;13.222;2023-08-20T03:03:06;2.95;;;2.75;;
23376;SDS011;14353;46.070;13.222;2023-08-20T03:05:33;3.30;;;3.00;;
23376;SDS011;14353;46.070;13.222;2023-08-20T03:08:00;3.28;;;3.08;;
23376;SDS011;14353;46.070;13.222;2023-08-20T03:10:26;3.38;;;3.08;;
23376;SDS011;14353;46.070;13.222;2023-08-20T03:12:52;3.50;;;3.20;;
23376;SDS011;14353;46.070;13.222;2023-08-20T03:15:18;3.60;;;3.30;;
23376;SDS011;14353;46.070;13.222;2023-08-20T03:17:44;3.38;;;3.08;;
23376;SDS011;14353;46.070;13.222;2023-08-20T03:20:10;3.28;;;2.97;;
23376;SDS011;14353;46.070;13.222;2023-08-20T03:22:36;4.13;;;3.25;;
23376;SDS011;14353;46.070;13.222;2023-08-20T03:25:02;2.97;;;2.67;;
23376;SDS011;14353;46.070;13.222;2023-08-20T03:27:29;3.35;;;3.05;;
23376;SDS011;14353;46.070;13.222;2023-08-20T03:29:54;3.17;;;2.97;;
23376;SDS011;14353;46.070;13.222;2023-08-20T03:32:20;3.25;;;3.00;;
23376;SDS011;14353;46.070;13.222;2023-08-20T03:34:46;3.20;;;2.90;;
23376;SDS011;14353;46.070;13.222;2023-08-20T03:37:11;3.38;;;3.08;;
23376;SDS011;14353;46.070;13.222;2023-08-20T03:39:37;3.15;;;2.95;;
23376;SDS011;14353;46.070;13.222;2023-08-20T03:42:03;3.22;;;2.83;;
23376;SDS011;14353;46.070;13.222;2023-08-20T03:44:30;3.55;;;3.30;;
23376;SDS011;14353;46.070;13.222;2023-08-20T03:46:56;3.50;;;3.20;;
23376;SDS011;14353;46.070;13.222;2023-08-20T03:49:22;3.78;;;3.10;;
23376;SDS011;14353;46.070;13.222;2023-08-20T03:51:48;3.35;;;3.15;;
23376;SDS011;14353;46.070;13.222;2023-08-20T03:54:13;3.50;;;3.20;;
23376;SDS011;14353;46.070;13.222;2023-08-20T03:56:39;3.33;;;3.10;;
23376;SDS011;14353;46.070;13.222;2023-08-20T03:59:05;3.55;;;3.25;;
23376;SDS011;14353;46.070;13.222;2023-08-20T04:01:31;3.10;;;2.90;;
23376;SDS011;14353;46.070;13.222;2023-08-20T04:03:57;3.38;;;3.08;;
23376;SDS011;14353;46.070;13.222;2023-08-20T04:06:23;3.60;;;3.30;;
23376;SDS011;14353;46.070;13.222;2023-08-20T04:08:49;3.35;;;3.05;;
23376;SDS011;14353;46.070;13.222;2023-08-20T04:11:14;3.20;;;2.97;;
23376;SDS011;14353;46.070;13.222;2023-08-20T04:13:40;3.50;;;3.20;;
23376;SDS011;14353;46.070;13.222;2023-08-20T04:16:08;3.28;;;3.08;;
23376;SDS011;14353;46.070;13.222;2023-08-20T04:18:34;3.38;;;3.08;;
23376;SDS011;14353;46.070;13.222;2023-08-20T04:21:00;3.38;;;3.10;;
23376;SDS011;14353;46.070;13.222;2023-08-20T04:23:26;3.03;;;2.83;;
23376;SDS011;14353;46.070;13.222;2023-08-20T04:25:51;3.50;;;3.20;;
23376;SDS011;14353;46.070;13.222;2023-08-20T04:28:17;3.28;;;2.97;;
23376;SDS011;14353;46.070;13.222;2023-08-20T04:30:43;2.95;;;2.75;;
23376;SDS011;14353;46.070;13.222;2023-08-20T04:33:09;3.50;;;3.20;;
23376;SDS011;14353;46.070;13.222;2023-08-20T04:35:35;3.50;;;3.20;;
23376;SDS011;14353;46.070;13.222;2023-08-20T04:38:01;3.40;;;3.10;;
23376;SDS011;14353;46.070;13.222;2023-08-20T04:40:27;3.17;;;2.97;;
23376;SDS011;14353;46.070;13.222;2023-08-20T04:42:56;3.58;;;3.28;;
23376;SDS011;14353;46.070;13.222;2023-08-20T04:45:22;3.33;;;3.05;;
23376;SDS011;14353;46.070;13.222;2023-08-20T04:47:47;3.15;;;2.95;;
23376;SDS011;14353;46.070;13.222;2023-08-20T04:50:13;3.10;;;2.90;;
23376;SDS011;14353;46.070;13.222;2023-08-20T04:52:39;3.25;;;2.97;;
23376;SDS011;14353;46.070;13.222;2023-08-20T04:55:05;3.15;;;2.95;;
23376;SDS011;14353;46.070;13.222;2023-08-20T04:57:34;3.50;;;3.17;;
23376;SDS011;14353;46.070;13.222;2023-08-20T05:00:00;3.60;;;3.30;;
23376;SDS011;14353;46.070;13.222;2023-08-20T05:02:25;3.25;;;3.03;;
23376;SDS011;14353;46.070;13.222;2023-08-20T05:04:51;3.38;;;3.08;;
23376;SDS011;14353;46.070;13.222;2023-08-20T05:07:17;3.50;;;3.30;;
23376;SDS011;14353;46.070;13.222;2023-08-20T05:09:43;3.60;;;3.30;;
23376;SDS011;14353;46.070;13.222;2023-08-20T05:12:09;3.20;;;3.00;;
23376;SDS011;14353;46.070;13.222;2023-08-20T05:14:34;3.60;;;3.30;;
23376;SDS011;14353;46.070;13.222;2023-08-20T05:17:00;3.50;;;3.20;;
23376;SDS011;14353;46.070;13.222;2023-08-20T05:19:26;3.22;;;3.03;;
23376;SDS011;14353;46.070;13.222;2023-08-20T05:21:52;3.30;;;3.00;;
23376;SDS011;14353;46.070;13.222;2023-08-20T05:24:21;3.20;;;3.00;;
23376;SDS011;14353;46.070;13.222;2023-08-20T05:26:49;3.22;;;3.03;;
23376;SDS011;14353;46.070;13.222;2023-08-20T05:29:30;3.70;;;3.40;;
23376;SDS011;14353;46.070;13.222;2023-08-20T05:31:56;3.45;;;3.25;;
23376;SDS011;14353;46.070;13.222;2023-08-20T05:34:22;3.50;;;3.20;;
23376;SDS011;14353;46.070;13.222;2023-08-20T05:36:48;3.20;;;3.00;;
23376;SDS011;14353;46.070;13.222;2023-08-20T05:39:13;3.35;;;3.15;;
23376;SDS011;14353;46.070;13.222;2023-08-20T05:41:39;3.60;;;3.30;;
23376;SDS011;14353;46.070;13.222;2023-08-20T05:44:05;3.28;;;3.00;;
23376;SDS011;14353;46.070;13.222;2023-08-20T05:46:30;3.40;;;3.10;;
23376;SDS011;14353;46.070;13.222;2023-08-20T05:48:56;3.72;;;3.42;;
23376;SDS011;14353;46.070;13.222;2023-08-20T05:51:22;3.20;;;3.00;;
23376;SDS011;14353;46.070;13.222;2023-08-20T05:53:47;5.03;;;3.42;;
23376;SDS011;14353;46.070;13.222;2023-08-20T05:56:13;3.60;;;3.30;;
23376;SDS011;14353;46.070;13.222;2023-08-20T05:58:39;3.55;;;3.25;;
23376;SDS011;14353;46.070;13.222;2023-08-20T06:01:04;3.60;;;3.30;;
23376;SDS011;14353;46.070;13.222;2023-08-20T06:03:30;3.70;;;3.40;;
23376;SDS011;14353;46.070;13.222;2023-08-20T06:05:58;3.65;;;3.40;;
23376;SDS011;14353;46.070;13.222;2023-08-20T06:08:24;3.63;;;3.33;;
23376;SDS011;14353;46.070;13.222;2023-08-20T06:10:50;3.42;;;3.20;;
23376;SDS011;14353;46.070;13.222;2023-08-20T06:13:17;3.65;;;3.15;;
23376;SDS011;14353;46.070;13.222;2023-08-20T06:15:42;3.35;;;3.05;;
23376;SDS011;14353;46.070;13.222;2023-08-20T06:18:08;3.53;;;3.22;;
23376;SDS011;14353;46.070;13.222;2023-08-20T06:20:34;3.10;;;2.90;;
23376;SDS011;14353;46.070;13.222;2023-08-20T06:22:59;3.47;;;3.22;;
23376;SDS011;14353;46.070;13.222;2023-08-20T06:25:25;3.20;;;3.00;;
23376;SDS011;14353;46.070;13.222;2023-08-20T06:27:51;3.38;;;3.17;;
23376;SDS011;14353;46.070;13.222;2023-08-20T06:30:16;3.20;;;3.00;;
23376;SDS011;14353;46.070;13.222;2023-08-20T06:32:43;3.03;;;2.83;;
23376;SDS011;14353;46.070;13.222;2023-08-20T06:35:09;3.60;;;3.30;;
23376;SDS011;14353;46.070;13.222;2023-08-20T06:37:36;3.25;;;3.05;;
23376;SDS011;14353;46.070;13.222;2023-08-20T06:40:03;3.67;;;3.38;;
23376;SDS011;14353;46.070;13.222;2023-08-20T06:42:30;3.42;;;3.13;;
23376;SDS011;14353;46.070;13.222;2023-08-20T06:44:55;3.53;;;3.22;;
23376;SDS011;14353;46.070;13.222;2023-08-20T06:47:21;3.15;;;2.95;;
23376;SDS011;14353;46.070;13.222;2023-08-20T06:49:47;3.50;;;3.20;;
23376;SDS011;14353;46.070;13.222;2023-08-20T06:52:12;3.13;;;2.92;;
23376;SDS011;14353;46.070;13.222;2023-08-20T06:54:38;3.42;;;3.13;;
23376;SDS011;14353;46.070;13.222;2023-08-20T06:57:04;3.63;;;3.33;;
23376;SDS011;14353;46.070;13.222;2023-08-20T06:59:30;3.45;;;3.15;;
23376;SDS011;14353;46.070;13.222;2023-08-20T07:01:55;3.00;;;2.80;;
23376;SDS011;14353;46.070;13.222;2023-08-20T07:04:21;3.22;;;3.03;;
23376;SDS011;14353;46.070;13.222;2023-08-20T07:06:47;3.17;;;2.97;;
23376;SDS011;14353;46.070;13.222;2023-08-20T07:09:13;3.22;;;3.03;;
23376;SDS011;14353;46.070;13.222;2023-08-20T07:11:38;3.30;;;3.03;;
23376;SDS011;14353;46.070;13.222;2023-08-20T07:14:04;3.40;;;3.10;;
23376;SDS011;14353;46.070;13.222;2023-08-20T07:16:30;3.50;;;3.20;;
23376;SDS011;14353;46.070;13.222;2023-08-20T07:18:56;3.10;;;2.90;;
23376;SDS011;14353;46.070;13.222;2023-08-20T07:21:22;3.55;;;3.25;;
23376;SDS011;14353;46.070;13.222;2023-08-20T07:23:48;3.20;;;3.00;;
23376;SDS011;14353;46.070;13.222;2023-08-20T07:26:13;3.08;;;2.88;;
23376;SDS011;14353;46.070;13.222;2023-08-20T07:28:40;3.10;;;2.90;;
23376;SDS011;14353;46.070;13.222;2023-08-20T07:31:21;3.00;;;2.80;;
23376;SDS011;14353;46.070;13.222;2023-08-20T07:33:48;3.25;;;3.05;;
23376;SDS011;14353;46.070;13.222;2023-08-20T07:36:15;3.25;;;2.95;;
23376;SDS011;14353;46.070;13.222;2023-08-20T07:38:42;3.10;;;2.90;;
23376;SDS011;14353;46.070;13.222;2023-08-20T07:41:08;2.95;;;2.75;;
23376;SDS011;14353;46.070;13.222;2023-08-20T07:43:34;2.97;;;2.78;;
23376;SDS011;14353;46.070;13.222;2023-08-20T07:46:01;3.20;;;3.00;;
23376;SDS011;14353;46.070;13.222;2023-08-20T07:48:26;3.08;;;2.88;;
23376;SDS011;14353;46.070;13.222;2023-08-20T07:50:52;3.17;;;2.97;;
23376;SDS011;14353;46.070;13.222;2023-08-20T07:53:18;3.45;;;3.20;;
23376;SDS011;14353;46.070;13.222;2023-08-20T07:55:44;3.30;;;3.00;;
23376;SDS011;14353;46.070;13.222;2023-08-20T07:58:09;3.00;;;2.80;;
23376;SDS011;14353;46.070;13.222;2023-08-20T08:00:35;3.20;;;3.00;;
23376;SDS011;14353;46.070;13.222;2023-08-20T08:03:01;3.25;;;3.05;;
23376;SDS011;14353;46.070;13.222;2023-08-20T08:05:27;3.33;;;3.08;;
23376;SDS011;14353;46.070;13.222;2023-08-20T08:07:53;3.20;;;3.00;;
23376;SDS011;14353;46.070;13.222;2023-08-20T08:10:19;3.30;;;3.00;;
23376;SDS011;14353;46.070;13.222;2023-08-20T08:12:45;3.28;;;3.08;;
23376;SDS011;14353;46.070;13.222;2023-08-20T08:15:11;3.55;;;3.25;;
23376;SDS011;14353;46.070;13.222;2023-08-20T08:17:37;3.35;;;3.15;;
23376;SDS011;14353;46.070;13.222;2023-08-20T08:20:03;3.42;;;3.13;;
23376;SDS011;14353;46.070;13.222;2023-08-20T08:22:28;3.20;;;3.00;;
23376;SDS011;14353;46.070;13.222;2023-08-20T08:24:54;3.25;;;3.00;;
23376;SDS011;14353;46.070;13.222;2023-08-20T08:27:20;3.22;;;2.92;;
23376;SDS011;14353;46.070;13.222;2023-08-20T08:29:46;3.20;;;2.90;;
23376;SDS011;14353;46.070;13.222;2023-08-20T08:32:11;2.88;;;2.67;;
23376;SDS011;14353;46.070;13.222;2023-08-20T08:34:37;3.40;;;3.20;;
23376;SDS011;14353;46.070;13.222;2023-08-20T08:37:03;2.83;;;2.63;;
23376;SDS011;14353;46.070;13.222;2023-08-20T08:39:28;3.00;;;2.80;;
23376;SDS011;14353;46.070;13.222;2023-08-20T08:41:55;2.80;;;2.60;;
23376;SDS011;14353;46.070;13.222;2023-08-20T08:44:31;3.05;;;2.85;;
23376;SDS011;14353;46.070;13.222;2023-08-20T08:47:03;3.00;;;2.80;;
23376;SDS011;14353;46.070;13.222;2023-08-20T08:49:32;2.88;;;2.67;;
23376;SDS011;14353;46.070;13.222;2023-08-20T08:51:59;3.40;;;3.10;;
23376;SDS011;14353;46.070;13.222;2023-08-20T08:54:25;2.80;;;2.60;;
23376;SDS011;14353;46.070;13.222;2023-08-20T08:56:52;3.15;;;2.85;;
23376;SDS011;14353;46.070;13.222;2023-08-20T08:59:18;3.05;;;2.85;;
23376;SDS011;14353;46.070;13.222;2023-08-20T09:01:44;3.10;;;2.90;;
23376;SDS011;14353;46.070;13.222;2023-08-20T09:04:10;3.30;;;3.00;;
23376;SDS011;14353;46.070;13.222;2023-08-20T09:06:51;2.92;;;2.72;;
23376;SDS011;14353;46.070;13.222;2023-08-20T09:09:18;2.80;;;2.60;;
23376;SDS011;14353;46.070;13.222;2023-08-20T09:11:48;3.33;;;3.13;;
23376;SDS011;14353;46.070;13.222;2023-08-20T09:14:20;3.05;;;2.85;;
23376;SDS011;14353;46.070;13.222;2023-08-20T09:19:29;3.00;;;2.80;;
23376;SDS011;14353;46.070;13.222;2023-08-20T09:22:04;3.00;;;2.80;;
23376;SDS011;14353;46.070;13.222;2023-08-20T09:24:40;3.10;;;2.90;;
23376;SDS011;14353;46.070;13.222;2023-08-20T09:27:16;3.00;;;2.80;;
23376;SDS011;14353;46.070;13.222;2023-08-20T09:29:49;3.15;;;2.85;;
23376;SDS011;14353;46.070;13.222;2023-08-20T09:32:17;3.22;;;3.03;;
23376;SDS011;14353;46.070;13.222;2023-08-20T09:34:44;3.17;;;2.97;;
23376;SDS011;14353;46.070;13.222;2023-08-20T09:37:11;3.38;;;3.05;;
23376;SDS011;14353;46.070;13.222;2023-08-20T09:39:38;3.25;;;3.05;;
23376;SDS011;14353;46.070;13.222;2023-08-20T09:42:05;3.03;;;2.83;;
23376;SDS011;14353;46.070;13.222;2023-08-20T09:44:41;2.80;;;2.60;;
23376;SDS011;14353;46.070;13.222;2023-08-20T09:47:11;3.00;;;2.80;;
23376;SDS011;14353;46.070;13.222;2023-08-20T09:49:45;3.10;;;2.90;;
23376;SDS011;14353;46.070;13.222;2023-08-20T09:52:15;2.95;;;2.75;;
23376;SDS011;14353;46.070;13.222;2023-08-20T09:57:41;3.20;;;2.90;;
23376;SDS011;14353;46.070;13.222;2023-08-20T10:00:08;3.22;;;3.00;;
23376;SDS011;14353;46.070;13.222;2023-08-20T10:02:35;3.40;;;3.10;;
23376;SDS011;14353;46.070;13.222;2023-08-20T10:05:05;3.17;;;2.97;;
23376;SDS011;14353;46.070;13.222;2023-08-20T10:07:32;3.00;;;2.80;;
23376;SDS011;14353;46.070;13.222;2023-08-20T10:10:00;3.28;;;3.08;;
23376;SDS011;14353;46.070;13.222;2023-08-20T10:12:28;3.40;;;3.10;;
23376;SDS011;14353;46.070;13.222;2023-08-20T10:14:58;3.00;;;2.80;;
23376;SDS011;14353;46.070;13.222;2023-08-20T10:17:24;2.92;;;2.72;;
23376;SDS011;14353;46.070;13.222;2023-08-20T10:19:54;2.90;;;2.70;;
23376;SDS011;14353;46.070;13.222;2023-08-20T10:22:22;2.80;;;2.60;;
23376;SDS011;14353;46.070;13.222;2023-08-20T10:24:56;3.15;;;2.90;;
23376;SDS011;14353;46.070;13.222;2023-08-20T10:27:25;3.00;;;2.80;;
23376;SDS011;14353;46.070;13.222;2023-08-20T10:29:55;2.95;;;2.75;;
23376;SDS011;14353;46.070;13.222;2023-08-20T10:35:56;3.10;;;2.90;;
23376;SDS011;14353;46.070;13.222;2023-08-20T10:46:06;3.10;;;2.90;;
23376;SDS011;14353;46.070;13.222;2023-08-20T10:51:19;3.03;;;2.72;;
23376;SDS011;14353;46.070;13.222;2023-08-20T10:56:26;3.05;;;2.85;;
23376;SDS011;14353;46.070;13.222;2023-08-20T10:59:07;3.30;;;3.00;;
23376;SDS011;14353;46.070;13.222;2023-08-20T11:01:33;3.13;;;2.92;;
23376;SDS011;14353;46.070;13.222;2023-08-20T11:04:00;3.35;;;3.05;;
23376;SDS011;14353;46.070;13.222;2023-08-20T11:06:33;3.10;;;2.90;;
23376;SDS011;14353;46.070;13.222;2023-08-20T11:08:59;3.10;;;2.80;;
23376;SDS011;14353;46.070;13.222;2023-08-20T11:11:25;2.80;;;2.60;;
23376;SDS011;14353;46.070;13.222;2023-08-20T11:13:50;3.33;;;3.08;;
23376;SDS011;14353;46.070;13.222;2023-08-20T11:16:16;2.78;;;2.58;;
23376;SDS011;14353;46.070;13.222;2023-08-20T11:18:42;2.95;;;2.75;;
23376;SDS011;14353;46.070;13.222;2023-08-20T11:21:08;3.20;;;3.00;;
23376;SDS011;14353;46.070;13.222;2023-08-20T11:23:34;3.20;;;3.00;;
23376;SDS011;14353;46.070;13.222;2023-08-20T11:26:00;3.30;;;3.00;;
23376;SDS011;14353;46.070;13.222;2023-08-20T11:28:27;3.10;;;2.90;;
23376;SDS011;14353;46.070;13.222;2023-08-20T11:30:53;3.40;;;3.10;;
23376;SDS011;14353;46.070;13.222;2023-08-20T11:33:21;2.97;;;2.78;;
23376;SDS011;14353;46.070;13.222;2023-08-20T11:35:47;3.00;;;2.80;;
23376;SDS011;14353;46.070;13.222;2023-08-20T11:38:14;2.95;;;2.75;;
23376;SDS011;14353;46.070;13.222;2023-08-20T11:40:40;3.13;;;2.90;;
23376;SDS011;14353;46.070;13.222;2023-08-20T11:43:05;2.78;;;2.58;;
23376;SDS011;14353;46.070;13.222;2023-08-20T11:45:32;3.08;;;2.88;;
23376;SDS011;14353;46.070;13.222;2023-08-20T11:48:08;2.90;;;2.70;;
23376;SDS011;14353;46.070;13.222;2023-08-20T11:50:34;2.90;;;2.70;;
23376;SDS011;14353;46.070;13.222;2023-08-20T11:53:02;2.90;;;2.70;;
23376;SDS011;14353;46.070;13.222;2023-08-20T11:55:29;2.72;;;2.53;;
23376;SDS011;14353;46.070;13.222;2023-08-20T11:57:55;3.00;;;2.80;;
23376;SDS011;14353;46.070;13.222;2023-08-20T12:00:27;2.80;;;2.60;;
23376;SDS011;14353;46.070;13.222;2023-08-20T12:02:55;3.33;;;2.88;;
23376;SDS011;14353;46.070;13.222;2023-08-20T12:05:25;2.92;;;2.72;;
23376;SDS011;14353;46.070;13.222;2023-08-20T12:08:02;2.70;;;2.50;;
23376;SDS011;14353;46.070;13.222;2023-08-20T12:10:29;2.78;;;2.58;;
23376;SDS011;14353;46.070;13.222;2023-08-20T12:12:56;2.92;;;2.72;;
23376;SDS011;14353;46.070;13.222;2023-08-20T12:15:23;2.92;;;2.72;;
23376;SDS011;14353;46.070;13.222;2023-08-20T12:18:03;2.92;;;2.72;;
23376;SDS011;14353;46.070;13.222;2023-08-20T12:20:30;2.83;;;2.63;;
23376;SDS011;14353;46.070;13.222;2023-08-20T12:22:58;3.03;;;2.72;;
23376;SDS011;14353;46.070;13.222;2023-08-20T12:25:26;2.97;;;2.78;;
23376;SDS011;14353;46.070;13.222;2023-08-20T12:27:52;3.22;;;2.80;;
23376;SDS011;14353;46.070;13.222;2023-08-20T12:30:18;3.17;;;2.97;;
23376;SDS011;14353;46.070;13.222;2023-08-20T12:32:43;2.83;;;2.63;;
23376;SDS011;14353;46.070;13.222;2023-08-20T12:35:09;2.90;;;2.70;;
23376;SDS011;14353;46.070;13.222;2023-08-20T12:37:35;2.90;;;2.70;;
23376;SDS011;14353;46.070;13.222;2023-08-20T12:40:01;2.90;;;2.70;;
23376;SDS011;14353;46.070;13.222;2023-08-20T12:42:28;3.25;;;3.05;;
23376;SDS011;14353;46.070;13.222;2023-08-20T12:44:54;2.88;;;2.67;;
23376;SDS011;14353;46.070;13.222;2023-08-20T12:47:20;2.95;;;2.75;;
23376;SDS011;14353;46.070;13.222;2023-08-20T12:49:46;3.05;;;2.85;;
23376;SDS011;14353;46.070;13.222;2023-08-20T12:52:11;2.63;;;2.42;;
23376;SDS011;14353;46.070;13.222;2023-08-20T12:54:37;2.95;;;2.70;;
23376;SDS011;14353;46.070;13.222;2023-08-20T12:57:03;2.85;;;2.65;;
23376;SDS011;14353;46.070;13.222;2023-08-20T12:59:28;2.92;;;2.72;;
23376;SDS011;14353;46.070;13.222;2023-08-20T13:01:54;2.83;;;2.63;;
23376;SDS011;14353;46.070;13.222;2023-08-20T13:04:20;3.15;;;2.95;;
23376;SDS011;14353;46.070;13.222;2023-08-20T13:06:46;2.80;;;2.60;;
23376;SDS011;14353;46.070;13.222;2023-08-20T13:09:12;2.80;;;2.60;;
23376;SDS011;14353;46.070;13.222;2023-08-20T13:11:40;2.75;;;2.55;;
23376;SDS011;14353;46.070;13.222;2023-08-20T13:14:08;2.80;;;2.60;;
23376;SDS011;14353;46.070;13.222;2023-08-20T13:16:34;2.92;;;2.72;;
23376;SDS011;14353;46.070;13.222;2023-08-20T13:19:00;3.17;;;2.83;;
23376;SDS011;14353;46.070;13.222;2023-08-20T13:21:27;3.10;;;2.90;;
23376;SDS011;14353;46.070;13.222;2023-08-20T13:23:53;2.80;;;2.60;;
23376;SDS011;14353;46.070;13.222;2023-08-20T13:26:19;2.80;;;2.60;;
23376;SDS011;14353;46.070;13.222;2023-08-20T13:28:47;2.60;;;2.40;;
23376;SDS011;14353;46.070;13.222;2023-08-20T13:31:13;2.80;;;2.60;;
23376;SDS011;14353;46.070;13.222;2023-08-20T13:33:39;2.60;;;2.42;;
23376;SDS011;14353;46.070;13.222;2023-08-20T13:36:05;2.80;;;2.60;;
23376;SDS011;14353;46.070;13.222;2023-08-20T13:38:32;2.60;;;2.40;;
23376;SDS011;14353;46.070;13.222;2023-08-20T13:40:58;2.80;;;2.60;;
23376;SDS011;14353;46.070;13.222;2023-08-20T13:43:23;2.90;;;2.70;;
23376;SDS011;14353;46.070;13.222;2023-08-20T13:45:49;2.80;;;2.60;;
23376;SDS011;14353;46.070;13.222;2023-08-20T13:48:15;3.28;;;2.67;;
23376;SDS011;14353;46.070;13.222;2023-08-20T13:50:40;3.17;;;2.97;;
23376;SDS011;14353;46.070;13.222;2023-08-20T13:53:07;2.90;;;2.70;;
23376;SDS011;14353;46.070;13.222;2023-08-20T13:55:33;2.67;;;2.47;;
23376;SDS011;14353;46.070;13.222;2023-08-20T13:57:59;2.88;;;2.67;;
23376;SDS011;14353;46.070;13.222;2023-08-20T14:00:24;2.70;;;2.50;;
23376;SDS011;14353;46.070;13.222;2023-08-20T14:02:50;2.75;;;2.55;;
23376;SDS011;14353;46.070;13.222;2023-08-20T14:05:16;2.80;;;2.60;;
23376;SDS011;14353;46.070;13.222;2023-08-20T14:07:43;2.50;;;2.30;;
23376;SDS011;14353;46.070;13.222;2023-08-20T14:10:09;2.70;;;2.50;;
23376;SDS011;14353;46.070;13.222;2023-08-20T14:12:35;2.85;;;2.65;;
23376;SDS011;14353;46.070;13.222;2023-08-20T14:15:00;2.67;;;2.47;;
23376;SDS011;14353;46.070;13.222;2023-08-20T14:17:27;2.60;;;2.40;;
23376;SDS011;14353;46.070;13.222;2023-08-20T14:19:52;2.60;;;2.40;;
23376;SDS011;14353;46.070;13.222;2023-08-20T14:22:18;2.95;;;2.72;;
23376;SDS011;14353;46.070;13.222;2023-08-20T14:24:44;2.47;;;2.38;;
23376;SDS011;14353;46.070;13.222;2023-08-20T14:27:10;2.65;;;2.45;;
23376;SDS011;14353;46.070;13.222;2023-08-20T14:29:35;2.88;;;2.67;;
23376;SDS011;14353;46.070;13.222;2023-08-20T14:32:01;2.55;;;2.35;;
23376;SDS011;14353;46.070;13.222;2023-08-20T14:34:27;2.33;;;2.17;;
23376;SDS011;14353;46.070;13.222;2023-08-20T14:36:53;2.67;;;2.47;;
23376;SDS011;14353;46.070;13.222;2023-08-20T14:39:19;2.85;;;2.65;;
23376;SDS011;14353;46.070;13.222;2023-08-20T14:41:45;2.80;;;2.60;;
23376;SDS011;14353;46.070;13.222;2023-08-20T14:44:10;2.70;;;2.50;;
23376;SDS011;14353;46.070;13.222;2023-08-20T14:46:36;2.70;;;2.50;;
23376;SDS011;14353;46.070;13.222;2023-08-20T14:49:03;2.80;;;2.60;;
23376;SDS011;14353;46.070;13.222;2023-08-20T14:51:29;2.63;;;2.42;;
23376;SDS011;14353;46.070;13.222;2023-08-20T14:53:54;2.80;;;2.60;;
23376;SDS011;14353;46.070;13.222;2023-08-20T14:56:20;2.95;;;2.67;;
23376;SDS011;14353;46.070;13.222;2023-08-20T14:58:46;3.20;;;2.65;;
23376;SDS011;14353;46.070;13.222;2023-08-20T15:01:11;2.67;;;2.47;;